createdAt,value
2023-08-27T00:02:21.409Z,69.25
2023-08-27T00:04:49.359Z,69.61
2023-08-27T00:07:17.449Z,69.84
2023-08-27T00:09:45.658Z,70.21
2023-08-27T00:12:13.484Z,70.74
2023-08-27T00:14:45.132Z,71.35
2023-08-27T00:17:12.991Z,71.54
2023-08-27T00:19:40.633Z,71.51
2023-08-27T00:22:08.223Z,71.48
2023-08-27T00:24:36.109Z,71.53
2023-08-27T00:27:05.000Z,71.45
2023-08-27T00:29:32.924Z,71.51
2023-08-27T00:32:05.871Z,71.46
2023-08-27T00:34:39.419Z,71.06
2023-08-27T00:37:07.186Z,70.62
2023-08-27T00:39:35.115Z,70.14
2023-08-27T00:42:05.251Z,69.67
2023-08-27T00:44:32.991Z,69.18
2023-08-27T00:47:01.823Z,68.76
2023-08-27T00:49:30.622Z,68.44
2023-08-27T00:51:58.718Z,68.20
2023-08-27T00:54:26.498Z,68.00
2023-08-27T00:56:55.069Z,67.77
2023-08-27T00:59:22.780Z,67.62
2023-08-27T01:01:50.632Z,67.51
2023-08-27T01:04:18.269Z,67.21
2023-08-27T01:06:46.263Z,67.09
2023-08-27T01:09:22.428Z,67.02
2023-08-27T01:12:06.080Z,66.94
2023-08-27T01:14:35.918Z,66.73
2023-08-27T01:17:08.684Z,66.55
2023-08-27T01:19:36.835Z,66.17
2023-08-27T01:22:05.291Z,65.70
2023-08-27T01:24:33.291Z,65.30
2023-08-27T01:27:18.705Z,65.04
2023-08-27T01:30:13.190Z,65.03
2023-08-27T01:32:46.751Z,65.09
2023-08-27T01:35:16.910Z,65.21
2023-08-27T01:37:45.228Z,65.39
2023-08-27T01:40:13.492Z,65.44
2023-08-27T01:42:41.389Z,65.76
2023-08-27T01:45:11.609Z,66.10
2023-08-27T01:47:42.206Z,66.29
2023-08-27T01:50:11.261Z,66.40
2023-08-27T01:52:39.203Z,66.49
2023-08-27T01:55:07.688Z,66.51
2023-08-27T01:57:35.667Z,66.56
2023-08-27T02:00:04.847Z,66.60
2023-08-27T02:02:33.763Z,66.63
2023-08-27T02:05:01.741Z,66.68
2023-08-27T02:07:32.115Z,66.57
2023-08-27T02:10:00.429Z,66.47
2023-08-27T02:12:32.418Z,66.38
2023-08-27T02:15:00.775Z,66.35
2023-08-27T02:17:48.739Z,66.42
2023-08-27T02:20:16.934Z,66.76
2023-08-27T02:22:45.015Z,67.20
2023-08-27T02:25:17.695Z,67.40
2023-08-27T02:27:45.543Z,67.50
2023-08-27T02:30:13.859Z,67.86
2023-08-27T02:32:41.759Z,68.04
2023-08-27T02:35:09.796Z,68.34
2023-08-27T02:37:37.810Z,68.40
2023-08-27T02:40:06.156Z,68.48
2023-08-27T02:42:34.033Z,68.22
2023-08-27T02:45:01.924Z,67.59
2023-08-27T02:47:32.147Z,66.93
2023-08-27T02:50:00.168Z,66.49
2023-08-27T02:52:28.075Z,66.21
2023-08-27T02:54:55.988Z,66.10
2023-08-27T02:57:23.810Z,66.00
2023-08-27T02:59:51.792Z,65.97
2023-08-27T03:02:19.786Z,66.14
2023-08-27T03:04:47.784Z,66.46
2023-08-27T03:07:15.607Z,66.72
2023-08-27T03:09:43.229Z,67.05
2023-08-27T03:12:10.871Z,67.11
2023-08-27T03:14:38.492Z,67.03
2023-08-27T03:17:06.185Z,67.11
2023-08-27T03:19:34.022Z,67.56
2023-08-27T03:22:01.769Z,67.95
2023-08-27T03:24:30.408Z,68.08
2023-08-27T03:26:58.179Z,67.91
2023-08-27T03:29:26.556Z,67.68
2023-08-27T03:31:55.292Z,67.21
2023-08-27T03:34:22.983Z,66.78
2023-08-27T03:36:50.810Z,66.48
2023-08-27T03:39:19.865Z,66.41
2023-08-27T03:41:47.681Z,66.28
2023-08-27T03:44:15.287Z,66.41
2023-08-27T03:46:43.105Z,66.10
2023-08-27T03:49:11.606Z,65.84
2023-08-27T03:51:39.689Z,65.95
2023-08-27T03:54:08.595Z,65.93
2023-08-27T03:56:36.232Z,66.10
2023-08-27T03:59:03.946Z,66.13
2023-08-27T04:01:32.682Z,65.94
2023-08-27T04:04:00.536Z,65.50
2023-08-27T04:06:28.462Z,65.39
2023-08-27T04:08:56.409Z,65.27
2023-08-27T04:11:25.195Z,64.46
2023-08-27T04:13:53.239Z,64.17
2023-08-27T04:16:21.426Z,63.98
2023-08-27T04:18:49.595Z,63.51
2023-08-27T04:21:17.785Z,62.99
2023-08-27T04:23:46.799Z,62.27
2023-08-27T04:26:15.752Z,62.14
2023-08-27T04:28:43.745Z,62.06
2023-08-27T04:31:11.665Z,61.65
2023-08-27T04:33:39.555Z,61.47
2023-08-27T04:36:07.623Z,61.34
2023-08-27T04:38:36.253Z,61.40
2023-08-27T04:41:04.197Z,61.55
2023-08-27T04:43:32.121Z,61.34
2023-08-27T04:46:00.030Z,61.64
2023-08-27T04:48:28.107Z,62.05
2023-08-27T04:50:57.879Z,62.22
2023-08-27T04:53:28.449Z,62.60
2023-08-27T04:55:56.890Z,62.73
2023-08-27T04:58:25.084Z,62.66
2023-08-27T05:00:57.360Z,62.62
2023-08-27T05:03:27.033Z,62.64
2023-08-27T05:05:55.127Z,62.87
2023-08-27T05:08:23.392Z,62.91
2023-08-27T05:10:51.327Z,62.68
2023-08-27T05:13:19.339Z,62.77
2023-08-27T05:15:47.603Z,62.92
2023-08-27T05:18:15.768Z,63.11
2023-08-27T05:20:43.804Z,63.04
2023-08-27T05:23:11.725Z,63.06
2023-08-27T05:25:39.892Z,62.28
2023-08-27T05:28:07.787Z,62.51
2023-08-27T05:30:35.785Z,63.02
2023-08-27T05:33:05.154Z,62.95
2023-08-27T05:35:35.139Z,63.24
2023-08-27T05:38:03.319Z,63.32
2023-08-27T05:40:31.201Z,63.25
2023-08-27T05:42:59.391Z,63.06
2023-08-27T05:45:27.283Z,62.26
2023-08-27T05:47:55.280Z,61.94
2023-08-27T05:50:28.047Z,61.54
2023-08-27T05:52:56.277Z,60.74
2023-08-27T05:55:24.625Z,60.92
2023-08-27T05:57:52.543Z,59.93
2023-08-27T06:00:23.504Z,59.77
2023-08-27T06:02:54.057Z,59.91
2023-08-27T06:05:21.989Z,59.62
2023-08-27T06:07:49.845Z,58.86
2023-08-27T06:10:19.727Z,57.58
2023-08-27T06:12:47.648Z,57.93
2023-08-27T06:15:15.594Z,57.68
2023-08-27T06:17:43.852Z,57.72
2023-08-27T06:20:11.990Z,57.21
2023-08-27T06:22:40.041Z,56.99
2023-08-27T06:25:11.398Z,57.02
2023-08-27T06:27:39.589Z,56.55
2023-08-27T06:30:10.271Z,56.43
2023-08-27T06:32:38.876Z,56.27
2023-08-27T06:35:06.945Z,56.02
2023-08-27T06:37:35.355Z,56.06
2023-08-27T06:40:04.143Z,56.02
2023-08-27T06:42:32.219Z,55.76
2023-08-27T06:45:00.137Z,55.59
2023-08-27T06:47:30.226Z,55.52
2023-08-27T06:50:00.212Z,55.50
2023-08-27T06:52:28.204Z,55.27
2023-08-27T06:54:56.519Z,54.62
2023-08-27T06:57:24.433Z,54.41
2023-08-27T06:59:52.392Z,54.39
2023-08-27T07:02:20.330Z,53.76
2023-08-27T07:04:49.104Z,53.48
2023-08-27T07:07:17.020Z,53.56
2023-08-27T07:09:44.878Z,53.17
2023-08-27T07:12:13.904Z,53.25
2023-08-27T07:14:41.848Z,53.38
2023-08-27T07:17:09.874Z,52.57
2023-08-27T07:19:37.805Z,52.84
2023-08-27T07:22:05.692Z,52.88
2023-08-27T07:24:33.611Z,52.41
2023-08-27T07:27:01.481Z,51.70
2023-08-27T07:29:29.636Z,51.53
2023-08-27T07:31:57.476Z,50.93
2023-08-27T07:34:25.593Z,50.27
2023-08-27T07:36:55.979Z,50.19
2023-08-27T07:39:24.167Z,49.87
2023-08-27T07:41:52.267Z,49.90
2023-08-27T07:44:22.767Z,49.80
2023-08-27T07:46:50.807Z,49.54
2023-08-27T07:49:18.863Z,49.83
2023-08-27T07:51:47.438Z,49.33
2023-08-27T07:54:15.202Z,49.44
2023-08-27T07:56:43.223Z,49.84
2023-08-27T07:59:11.081Z,49.65
2023-08-27T08:01:39.779Z,49.46
2023-08-27T08:04:07.743Z,49.39
2023-08-27T08:06:35.564Z,48.61
2023-08-27T08:09:03.528Z,48.54
2023-08-27T08:11:31.174Z,48.83
2023-08-27T08:13:59.751Z,48.54
2023-08-27T08:16:27.492Z,48.46
2023-08-27T08:18:55.167Z,48.34
2023-08-27T08:21:22.910Z,48.59
2023-08-27T08:23:50.507Z,47.78
2023-08-27T08:26:18.344Z,47.01
2023-08-27T08:28:47.065Z,47.20
2023-08-27T08:31:17.406Z,47.08
2023-08-27T08:33:45.117Z,47.01
2023-08-27T08:36:12.695Z,46.91
2023-08-27T08:38:40.370Z,46.99
2023-08-27T08:41:10.302Z,47.46
2023-08-27T08:43:46.081Z,47.61
2023-08-27T08:46:17.119Z,47.64
2023-08-27T08:48:48.988Z,47.39
2023-08-27T08:51:21.187Z,47.64
2023-08-27T08:53:52.031Z,47.21
2023-08-27T08:56:28.471Z,46.28
2023-08-27T08:58:58.226Z,46.49
2023-08-27T09:01:26.470Z,46.50
2023-08-27T09:03:55.740Z,46.59
2023-08-27T09:06:24.407Z,46.21
2023-08-27T09:08:57.436Z,44.40
2023-08-27T09:11:27.359Z,45.50
2023-08-27T09:13:57.439Z,45.19
2023-08-27T09:16:25.442Z,44.96
2023-08-27T09:18:53.418Z,44.96
2023-08-27T09:21:21.441Z,44.17
2023-08-27T09:23:51.270Z,43.62
2023-08-27T09:26:22.200Z,42.86
2023-08-27T09:28:50.324Z,43.52
2023-08-27T09:31:41.447Z,43.41
2023-08-27T09:34:10.915Z,42.76
2023-08-27T09:36:39.056Z,42.78
2023-08-27T09:39:12.211Z,40.87
2023-08-27T09:41:43.046Z,41.66
2023-08-27T09:44:11.985Z,41.75
2023-08-27T09:46:41.954Z,41.65
2023-08-27T09:49:10.566Z,41.55
2023-08-27T09:51:40.727Z,40.83
2023-08-27T09:54:16.461Z,40.80
2023-08-27T09:56:49.942Z,40.41
2023-08-27T09:59:19.349Z,39.80
2023-08-27T10:01:52.111Z,40.15
2023-08-27T10:04:21.309Z,39.71
2023-08-27T10:06:49.771Z,39.44
2023-08-27T10:09:18.336Z,38.04
2023-08-27T10:11:47.581Z,38.82
2023-08-27T10:14:17.608Z,39.43
2023-08-27T10:16:46.082Z,39.94
2023-08-27T10:19:14.997Z,40.14
2023-08-27T10:21:45.977Z,40.12
2023-08-27T10:24:13.963Z,40.52
2023-08-27T10:26:45.063Z,40.65
2023-08-27T10:29:13.588Z,40.53
2023-08-27T10:31:41.604Z,40.23
2023-08-27T10:34:11.712Z,39.23
2023-08-27T10:36:44.818Z,37.93
2023-08-27T10:39:15.409Z,38.19
2023-08-27T10:41:43.441Z,37.53
2023-08-27T10:44:11.769Z,37.92
2023-08-27T10:46:39.673Z,38.55
2023-08-27T10:49:17.962Z,38.38
2023-08-27T10:51:45.793Z,38.15
2023-08-27T10:54:26.064Z,38.57
2023-08-27T10:56:56.492Z,38.00
2023-08-27T10:59:29.158Z,37.82
2023-08-27T11:02:09.684Z,37.38
2023-08-27T11:04:40.974Z,36.55
2023-08-27T11:07:16.539Z,35.19
2023-08-27T11:09:59.734Z,34.18
2023-08-27T11:12:37.590Z,34.80
2023-08-27T11:15:16.446Z,35.44
2023-08-27T11:17:46.343Z,35.27
2023-08-27T11:20:25.451Z,35.18
2023-08-27T11:23:09.388Z,35.38
2023-08-27T11:25:38.520Z,34.70
2023-08-27T11:28:08.385Z,34.49
2023-08-27T11:30:36.260Z,34.35
2023-08-27T11:33:04.489Z,34.59
2023-08-27T11:35:32.867Z,35.06
2023-08-27T11:38:01.024Z,36.03
2023-08-27T11:40:29.132Z,35.78
2023-08-27T11:42:58.014Z,36.10
2023-08-27T11:45:36.018Z,36.44
2023-08-27T11:48:08.452Z,37.12
2023-08-27T11:50:44.257Z,37.35
2023-08-27T11:53:12.968Z,37.00
2023-08-27T11:55:41.809Z,36.10
2023-08-27T11:58:11.226Z,35.36
2023-08-27T12:00:44.651Z,35.06
2023-08-27T12:03:12.922Z,34.79
2023-08-27T12:05:40.820Z,35.04
2023-08-27T12:08:09.420Z,35.52
2023-08-27T12:10:45.421Z,37.01
2023-08-27T12:13:14.975Z,37.47
2023-08-27T12:15:44.224Z,38.52
2023-08-27T12:18:12.182Z,39.03
2023-08-27T12:20:40.095Z,39.46
2023-08-27T12:23:12.373Z,39.71
2023-08-27T12:25:50.838Z,40.07
2023-08-27T12:28:19.631Z,40.39
2023-08-27T12:30:54.174Z,40.63
2023-08-27T12:33:40.930Z,41.19
2023-08-27T12:36:09.327Z,40.98
2023-08-27T12:38:37.256Z,41.68
2023-08-27T12:41:05.394Z,41.44
2023-08-27T12:43:33.420Z,40.94
2023-08-27T12:46:01.818Z,40.50
2023-08-27T12:48:29.779Z,40.54
2023-08-27T12:50:57.846Z,41.30
2023-08-27T12:53:25.628Z,42.10
2023-08-27T12:55:53.504Z,42.33
2023-08-27T12:58:21.426Z,42.79
2023-08-27T13:00:49.314Z,43.14
2023-08-27T13:03:17.564Z,43.54
2023-08-27T13:05:48.803Z,43.91
2023-08-27T13:08:16.672Z,44.44
2023-08-27T13:10:44.573Z,44.60
2023-08-27T13:13:12.458Z,44.59
2023-08-27T13:15:40.320Z,44.18
2023-08-27T13:18:08.810Z,43.98
2023-08-27T13:20:36.726Z,44.10
2023-08-27T13:23:05.163Z,44.25
2023-08-27T13:25:33.112Z,44.75
2023-08-27T13:28:01.176Z,44.91
2023-08-27T13:30:29.644Z,44.91
2023-08-27T13:32:57.545Z,45.21
2023-08-27T13:35:26.872Z,45.74
2023-08-27T13:37:54.776Z,46.10
2023-08-27T13:40:22.663Z,46.06
2023-08-27T13:42:51.944Z,46.20
2023-08-27T13:45:21.490Z,46.15
2023-08-27T13:47:52.023Z,46.15
2023-08-27T13:50:20.208Z,45.97
2023-08-27T13:52:50.679Z,45.81
2023-08-27T13:55:18.655Z,45.73
2023-08-27T13:57:48.217Z,45.67
2023-08-27T14:00:16.268Z,45.57
2023-08-27T14:02:45.014Z,45.62
2023-08-27T14:05:13.072Z,45.51
2023-08-27T14:07:41.155Z,45.64
2023-08-27T14:10:09.453Z,45.77
2023-08-27T14:12:37.367Z,46.09
2023-08-27T14:15:05.665Z,46.19
2023-08-27T14:17:34.695Z,46.21
2023-08-27T14:20:02.637Z,46.37
2023-08-27T14:22:32.088Z,46.59
2023-08-27T14:25:04.878Z,46.83
2023-08-27T14:27:35.029Z,47.03
2023-08-27T14:30:02.964Z,47.32
2023-08-27T14:32:32.516Z,47.81
2023-08-27T14:35:00.440Z,48.30
2023-08-27T14:37:28.474Z,48.80
2023-08-27T14:39:56.383Z,49.25
2023-08-27T14:42:24.551Z,49.59
2023-08-27T14:44:52.624Z,49.75
2023-08-27T14:47:20.659Z,50.10
2023-08-27T14:49:48.546Z,50.36
2023-08-27T14:52:16.525Z,50.52
2023-08-27T14:54:46.674Z,50.63
2023-08-27T14:57:14.774Z,50.70
2023-08-27T14:59:43.553Z,50.73
2023-08-27T15:02:15.322Z,50.96
2023-08-27T15:04:45.778Z,51.02
2023-08-27T15:07:13.937Z,51.18
2023-08-27T15:09:42.048Z,51.27
2023-08-27T15:12:20.907Z,51.39
2023-08-27T15:14:48.998Z,51.26
2023-08-27T15:17:17.064Z,51.06
2023-08-27T15:19:45.347Z,50.81
2023-08-27T15:22:13.299Z,50.64
2023-08-27T15:24:41.158Z,50.58
2023-08-27T15:27:09.081Z,50.64
2023-08-27T15:29:36.902Z,50.68
2023-08-27T15:32:05.901Z,50.77
2023-08-27T15:34:37.680Z,50.86
2023-08-27T15:37:06.476Z,50.97
2023-08-27T15:39:34.423Z,51.06
2023-08-27T15:42:02.542Z,51.20
2023-08-27T15:44:30.475Z,51.28
2023-08-27T15:46:58.481Z,51.37
2023-08-27T15:49:26.355Z,51.39
2023-08-27T15:51:54.410Z,51.62
2023-08-27T15:54:22.555Z,51.71
2023-08-27T15:56:50.519Z,51.73
2023-08-27T15:59:18.374Z,51.77
2023-08-27T16:01:46.270Z,51.87
2023-08-27T16:04:14.193Z,51.95
2023-08-27T16:06:42.186Z,52.13
2023-08-27T16:09:10.434Z,52.26
2023-08-27T16:11:38.317Z,52.41
2023-08-27T16:14:06.229Z,52.61
2023-08-27T16:16:34.388Z,52.74
2023-08-27T16:19:02.427Z,52.82
2023-08-27T16:21:30.978Z,52.98
2023-08-27T16:24:00.500Z,53.14
2023-08-27T16:26:30.678Z,53.30
2023-08-27T16:28:59.900Z,53.38
2023-08-27T16:31:27.733Z,53.56
2023-08-27T16:33:55.686Z,53.69
2023-08-27T16:36:23.623Z,53.64
2023-08-27T16:38:51.631Z,53.76
2023-08-27T16:41:22.046Z,53.67
2023-08-27T16:43:50.065Z,53.82
2023-08-27T16:46:18.097Z,53.77
2023-08-27T16:48:46.048Z,53.78
2023-08-27T16:51:13.919Z,54.23
2023-08-27T16:53:44.172Z,54.34
2023-08-27T16:56:12.067Z,54.59
2023-08-27T16:58:40.040Z,54.69
2023-08-27T17:01:08.102Z,54.95
2023-08-27T17:03:36.116Z,55.00
2023-08-27T17:06:04.215Z,55.14
2023-08-27T17:08:32.075Z,55.32
2023-08-27T17:11:00.309Z,55.57
2023-08-27T17:13:28.266Z,55.89
2023-08-27T17:15:56.206Z,56.25
2023-08-27T17:18:24.314Z,56.58
2023-08-27T17:20:52.665Z,56.95
2023-08-27T17:23:20.666Z,57.20
2023-08-27T17:25:48.575Z,57.57
2023-08-27T17:28:19.736Z,57.84
2023-08-27T17:30:48.958Z,57.98
2023-08-27T17:33:16.894Z,58.10
2023-08-27T17:35:44.852Z,58.33
2023-08-27T17:38:13.559Z,58.48
2023-08-27T17:40:42.091Z,58.67
2023-08-27T17:43:09.946Z,58.95
2023-08-27T17:45:37.902Z,59.04
2023-08-27T17:48:07.994Z,59.20
2023-08-27T17:50:36.847Z,59.37
2023-08-27T17:53:06.802Z,59.63
2023-08-27T17:55:35.208Z,59.85
2023-08-27T17:58:03.732Z,60.04
2023-08-27T18:00:32.502Z,60.20
2023-08-27T18:03:00.514Z,60.31
2023-08-27T18:05:28.686Z,60.48
2023-08-27T18:07:56.737Z,60.78
2023-08-27T18:10:24.444Z,61.08
2023-08-27T18:12:52.064Z,61.21
2023-08-27T18:15:19.740Z,61.62
2023-08-27T18:17:47.501Z,62.01
2023-08-27T18:20:15.556Z,62.39
2023-08-27T18:22:43.343Z,62.48
2023-08-27T18:25:11.054Z,62.48
2023-08-27T18:27:38.630Z,62.66
2023-08-27T18:30:06.925Z,62.82
2023-08-27T18:32:34.948Z,63.04
2023-08-27T18:35:02.673Z,63.22
2023-08-27T18:37:31.820Z,63.36
2023-08-27T18:39:59.632Z,63.49
2023-08-27T18:42:33.326Z,63.61
2023-08-27T18:45:01.904Z,63.91
2023-08-27T18:47:35.950Z,64.16
2023-08-27T18:50:04.767Z,64.42
2023-08-27T18:52:33.758Z,64.53
2023-08-27T18:55:02.594Z,64.59
2023-08-27T18:57:33.446Z,64.73
2023-08-27T19:00:01.445Z,64.75
2023-08-27T19:02:32.266Z,64.83
2023-08-27T19:05:00.042Z,64.84
2023-08-27T19:07:28.076Z,64.79
2023-08-27T19:09:56.304Z,64.78
2023-08-27T19:12:24.409Z,64.86
2023-08-27T19:14:52.540Z,64.89
2023-08-27T19:17:20.717Z,64.96
2023-08-27T19:19:48.648Z,65.04
2023-08-27T19:22:16.550Z,65.14
2023-08-27T19:24:44.728Z,65.30
2023-08-27T19:27:14.100Z,65.53
2023-08-27T19:29:42.001Z,65.62
2023-08-27T19:32:10.927Z,65.71
2023-08-27T19:34:38.826Z,65.66
2023-08-27T19:37:08.089Z,65.77
2023-08-27T19:39:36.139Z,65.85
2023-08-27T19:42:04.486Z,65.95
2023-08-27T19:44:32.432Z,66.05
2023-08-27T19:47:00.259Z,66.14
2023-08-27T19:49:28.175Z,66.23
2023-08-27T19:51:56.852Z,66.27
2023-08-27T19:54:26.103Z,66.24
2023-08-27T19:56:53.980Z,66.28
2023-08-27T19:59:22.005Z,66.44
2023-08-27T20:01:50.000Z,66.63
2023-08-27T20:04:17.977Z,66.86
2023-08-27T20:06:45.992Z,67.02
2023-08-27T20:09:13.840Z,67.16
2023-08-27T20:11:41.847Z,67.23
2023-08-27T20:14:09.760Z,67.26
2023-08-27T20:16:37.724Z,67.31
2023-08-27T20:19:05.726Z,67.42
2023-08-27T20:21:33.594Z,67.43
2023-08-27T20:24:01.462Z,67.43
2023-08-27T20:26:30.074Z,67.40
2023-08-27T20:29:00.250Z,67.39
2023-08-27T20:31:28.116Z,67.45
2023-08-27T20:33:56.511Z,67.55
2023-08-27T20:36:24.442Z,67.68
2023-08-27T20:38:54.292Z,67.79
2023-08-27T20:41:22.161Z,67.84
2023-08-27T20:43:50.240Z,67.74
2023-08-27T20:46:18.662Z,67.69
2023-08-27T20:48:46.697Z,67.61
2023-08-27T20:51:14.590Z,67.45
2023-08-27T20:53:44.012Z,67.23
2023-08-27T20:56:12.432Z,67.22
2023-08-27T20:58:40.355Z,67.18
2023-08-27T21:01:11.260Z,67.17
2023-08-27T21:03:41.753Z,67.12
2023-08-27T21:06:09.662Z,67.06
2023-08-27T21:08:37.474Z,66.88
2023-08-27T21:11:09.541Z,66.66
2023-08-27T21:13:37.689Z,66.41
2023-08-27T21:16:05.944Z,66.20
2023-08-27T21:18:33.591Z,66.00
2023-08-27T21:21:01.268Z,65.63
2023-08-27T21:23:28.866Z,65.33
2023-08-27T21:25:57.933Z,65.21
2023-08-27T21:28:26.860Z,65.35
2023-08-27T21:30:54.504Z,65.51
2023-08-27T21:33:22.254Z,65.60
2023-08-27T21:35:49.912Z,65.60
2023-08-27T21:38:17.591Z,65.53
2023-08-27T21:40:50.100Z,65.54
2023-08-27T21:43:18.161Z,65.52
2023-08-27T21:45:46.048Z,65.61
2023-08-27T21:48:14.334Z,65.63
2023-08-27T21:50:42.570Z,65.68
2023-08-27T21:53:10.328Z,65.60
2023-08-27T21:55:37.956Z,65.47
2023-08-27T21:58:05.574Z,65.31
2023-08-27T22:00:35.658Z,65.09
2023-08-27T22:03:03.656Z,64.84
2023-08-27T22:05:31.791Z,64.80
2023-08-27T22:07:59.669Z,64.98
2023-08-27T22:10:27.332Z,65.05
2023-08-27T22:12:54.985Z,65.15
2023-08-27T22:15:22.812Z,65.26
2023-08-27T22:17:50.436Z,65.34
2023-08-27T22:20:18.891Z,65.34
2023-08-27T22:22:46.547Z,65.17
2023-08-27T22:25:14.524Z,64.88
2023-08-27T22:27:42.638Z,64.78
2023-08-27T22:30:11.481Z,65.03
2023-08-27T22:32:39.454Z,65.21
2023-08-27T22:35:13.294Z,65.48
2023-08-27T22:37:41.136Z,65.45
2023-08-27T22:40:09.532Z,65.43
2023-08-27T22:42:38.313Z,65.45
2023-08-27T22:45:07.413Z,65.39
2023-08-27T22:47:36.888Z,65.34
2023-08-27T22:50:04.948Z,65.27
2023-08-27T22:52:34.515Z,65.39
2023-08-27T22:55:03.877Z,65.63
2023-08-27T22:57:33.171Z,65.84
2023-08-27T23:00:00.814Z,66.07
2023-08-27T23:02:28.692Z,66.27
2023-08-27T23:04:56.332Z,66.36
2023-08-27T23:07:24.220Z,66.38
2023-08-27T23:09:51.824Z,66.38
2023-08-27T23:12:19.649Z,66.33
2023-08-27T23:14:47.333Z,66.24
2023-08-27T23:17:15.285Z,66.10
2023-08-27T23:19:42.956Z,66.13
2023-08-27T23:22:10.734Z,66.09
2023-08-27T23:24:38.692Z,65.98
2023-08-27T23:27:06.420Z,66.10
2023-08-27T23:29:34.724Z,66.35
2023-08-27T23:32:02.409Z,66.44
2023-08-27T23:34:30.238Z,66.47
2023-08-27T23:37:01.274Z,66.30
2023-08-27T23:39:29.043Z,66.03
2023-08-27T23:41:56.660Z,65.71
2023-08-27T23:44:24.375Z,65.54
2023-08-27T23:46:54.593Z,65.34
2023-08-27T23:49:22.358Z,65.28
2023-08-27T23:51:50.179Z,65.37
2023-08-27T23:54:17.873Z,65.54
2023-08-27T23:56:45.557Z,65.88
2023-08-27T23:59:13.502Z,66.23
